Time;durP1;ratioP1;P1;durP2;ratioP2;P2;SDS_P1;SDS_P2;PMS_P1;PMS_P2;Temp;Humidity;BMP_temperature;BMP_pressure;BME280_temperature;BME280_humidity;BME280_pressure;Samples;Min_cycle;Max_cycle;Signal;HPM_P1;HPM_P2
2022/05/29 00:01:34;;;;;;;16.70;12.17;;;;;;;18.51;100.00;98762.94;5048568;28;20961;-88
2022/05/29 00:04:00;;;;;;;19.77;13.03;;;;;;;18.52;100.00;98770.53;5048254;28;20247;-86
2022/05/29 00:06:27;;;;;;;18.17;12.47;;;;;;;18.54;100.00;98772.97;5048365;28;20701;-85
2022/05/29 00:08:56;;;;;;;18.50;12.27;;;;;;;18.54;100.00;98778.94;5048225;28;20261;-85
2022/05/29 00:11:22;;;;;;;17.03;12.07;;;;;;;18.51;100.00;98774.09;5048306;28;20695;-86
2022/05/29 00:13:49;;;;;;;16.70;11.77;;;;;;;18.53;100.00;98768.78;5048086;28;20661;-87
2022/05/29 00:16:16;;;;;;;16.73;11.90;;;;;;;18.55;100.00;98779.75;5048388;28;20214;-86
2022/05/29 00:18:43;;;;;;;15.53;11.30;;;;;;;18.55;100.00;98779.75;5048293;28;20242;-87
2022/05/29 00:21:11;;;;;;;15.27;10.60;;;;;;;18.53;100.00;98781.72;5048056;28;20210;-85
2022/05/29 00:23:42;;;;;;;20.23;10.90;;;;;;;18.47;100.00;98778.03;5048217;28;20262;-88
2022/05/29 00:26:10;;;;;;;16.73;11.67;;;;;;;18.40;100.00;98778.84;5048231;28;20221;-85
2022/05/29 00:28:37;;;;;;;15.60;11.07;;;;;;;18.40;100.00;98771.09;5048136;28;20244;-87
2022/05/29 00:31:04;;;;;;;13.77;10.70;;;;;;;18.41;100.00;98772.69;5048109;28;20214;-86
2022/05/29 00:33:31;;;;;;;15.50;11.07;;;;;;;18.39;100.00;98759.94;5047955;28;20229;-87
2022/05/29 00:35:58;;;;;;;20.17;11.20;;;;;;;18.38;100.00;98752.31;5048158;28;20211;-86
2022/05/29 00:38:26;;;;;;;14.87;10.53;;;;;;;18.39;100.00;98743.59;5047777;28;20244;-85
2022/05/29 00:41:02;;;;;;;13.87;10.40;;;;;;;18.38;100.00;98736.78;5047952;28;20212;-88
2022/05/29 00:43:30;;;;;;;15.63;10.00;;;;;;;18.38;100.00;98739.38;5047828;28;20226;-85
2022/05/29 00:45:59;;;;;;;15.23;10.10;;;;;;;18.23;100.00;98745.25;5047871;28;20210;-85
2022/05/29 00:48:26;;;;;;;13.90;9.33;;;;;;;18.21;100.00;98739.47;5047855;28;20237;-85
2022/05/29 00:50:56;;;;;;;16.37;10.23;;;;;;;18.17;100.00;98740.75;5047982;28;20247;-87
2022/05/29 00:53:24;;;;;;;12.77;9.40;;;;;;;18.02;100.00;98721.75;5047955;28;20239;-88
2022/05/29 00:55:58;;;;;;;14.37;9.10;;;;;;;18.06;100.00;98712.66;5051819;28;20216;-87
2022/05/29 00:58:27;;;;;;;13.53;9.43;;;;;;;18.10;100.00;98701.03;5051799;28;20244;-88
2022/05/29 01:00:57;;;;;;;14.70;9.37;;;;;;;18.13;100.00;98682.56;5051867;28;20206;-88
2022/05/29 01:03:24;;;;;;;13.00;9.33;;;;;;;18.10;100.00;98682.91;5051755;28;20239;-85
2022/05/29 01:05:51;;;;;;;12.00;8.93;;;;;;;18.01;100.00;98684.72;5051578;28;20248;-85
2022/05/29 01:08:24;;;;;;;11.13;8.97;;;;;;;17.90;100.00;98677.34;5051414;28;20240;-87
2022/05/29 01:11:07;;;;;;;12.97;8.67;;;;;;;17.82;100.00;98675.56;5051555;28;20539;-85
2022/05/29 01:13:44;;;;;;;12.07;8.80;;;;;;;17.76;100.00;98675.41;5051560;28;20705;-87
2022/05/29 01:16:22;;;;;;;12.53;9.53;;;;;;;17.82;100.00;98675.56;5051184;28;20207;-88
2022/05/29 01:19:14;;;;;;;12.13;8.57;;;;;;;17.79;100.00;98681.09;5051483;28;20326;-85
2022/05/29 01:21:55;;;;;;;12.67;8.43;;;;;;;17.76;100.00;98676.22;5051209;28;20713;-88
2022/05/29 01:25:06;;;;;;;12.77;8.50;;;;;;;17.85;100.00;98680.41;5051308;28;20263;-86
2022/05/29 01:28:00;;;;;;;11.67;8.07;;;;;;;17.86;100.00;98686.41;4970007;28;20667;-87
2022/05/29 01:30:30;;;;;;;12.87;7.70;;;;;;;17.95;100.00;98694.91;5051140;28;20712;-86
2022/05/29 01:33:06;;;;;;;11.27;7.13;;;;;;;17.99;100.00;98691.03;5050754;28;20715;-85
2022/05/29 01:35:36;;;;;;;9.87;7.40;;;;;;;17.99;100.00;98676.31;5051113;28;20210;-85
2022/05/29 01:38:09;;;;;;;9.80;7.27;;;;;;;17.97;100.00;98678.25;5051023;28;20227;-86
2022/05/29 01:40:41;;;;;;;9.53;6.80;;;;;;;17.94;100.00;98682.97;5051007;28;20217;-88
2022/05/29 01:43:20;;;;;;;9.07;7.10;;;;;;;17.92;100.00;98700.44;5050967;28;20218;-88
2022/05/29 01:45:55;;;;;;;8.87;6.97;;;;;;;17.94;100.00;98719.19;5030665;28;20578;-85
2022/05/29 01:48:44;;;;;;;12.30;7.50;;;;;;;17.93;100.00;98717.59;5030816;28;20233;-88
2022/05/29 01:51:15;;;;;;;10.73;7.87;;;;;;;17.93;100.00;98722.75;5030860;28;20208;-86
2022/05/29 01:53:45;;;;;;;11.20;8.07;;;;;;;17.88;100.00;98715.47;5030649;28;20255;-85
2022/05/29 01:56:18;;;;;;;10.80;7.23;;;;;;;17.81;100.00;98709.38;5030544;28;20220;-85
2022/05/29 01:58:53;;;;;;;11.73;8.13;;;;;;;17.78;100.00;98705.34;5030885;28;20461;-86
2022/05/29 02:01:24;;;;;;;12.27;8.43;;;;;;;17.82;100.00;98696.25;5030912;28;20241;-85
2022/05/29 02:03:55;;;;;;;12.63;9.17;;;;;;;17.75;100.00;98699.66;5030377;28;20634;-87
2022/05/29 02:06:25;;;;;;;18.90;9.90;;;;;;;17.73;100.00;98706.78;5029882;28;20211;-85
2022/05/29 02:08:57;;;;;;;16.10;10.33;;;;;;;17.73;100.00;98719.72;5030534;28;20229;-87
2022/05/29 02:11:26;;;;;;;15.20;9.63;;;;;;;17.73;100.00;98719.72;5030551;28;20657;-85
2022/05/29 02:14:00;;;;;;;15.73;10.03;;;;;;;17.70;100.00;98720.84;5030357;28;20247;-86
2022/05/29 02:16:33;;;;;;;16.33;10.13;;;;;;;17.70;100.00;98707.13;5030364;28;20213;-85
2022/05/29 02:19:07;;;;;;;15.20;9.43;;;;;;;17.70;100.00;98705.31;5030034;28;20224;-85
2022/05/29 02:21:41;;;;;;;15.60;9.97;;;;;;;17.55;100.00;98699.22;5030098;28;20740;-86
2022/05/29 02:24:13;;;;;;;21.27;11.43;;;;;;;17.54;100.00;98687.25;5030489;28;20239;-86
2022/05/29 02:26:45;;;;;;;13.83;10.03;;;;;;;17.50;100.00;98699.72;5030289;28;20208;-85
2022/05/29 02:29:14;;;;;;;15.63;10.57;;;;;;;17.58;100.00;98704.06;5030257;28;20236;-86
2022/05/29 02:31:52;;;;;;;17.30;10.20;;;;;;;17.64;100.00;98704.22;5029998;28;21066;-86
2022/05/29 02:34:29;;;;;;;17.80;10.20;;;;;;;17.69;100.00;98695.97;5030181;28;20244;-87
2022/05/29 02:37:06;;;;;;;15.50;10.00;;;;;;;17.59;100.00;98685.00;5029838;28;20235;-85
2022/05/29 02:39:44;;;;;;;18.57;9.90;;;;;;;17.48;100.00;98682.75;5029799;28;20219;-87
2022/05/29 02:42:21;;;;;;;14.13;9.50;;;;;;;17.48;100.00;98680.16;5029813;28;20701;-86
2022/05/29 02:44:56;;;;;;;14.83;10.00;;;;;;;17.46;100.00;98669.22;5041815;28;20259;-86
2022/05/29 02:47:34;;;;;;;14.87;10.07;;;;;;;17.53;100.00;98659.81;5050080;28;20238;-86
2022/05/29 02:50:28;;;;;;;15.67;9.87;;;;;;;17.63;100.00;98639.75;5049435;28;20234;-88
2022/05/29 02:52:57;;;;;;;16.43;9.80;;;;;;;17.63;100.00;98629.41;5035877;28;20247;-88
2022/05/29 02:55:25;;;;;;;17.60;9.57;;;;;;;17.58;100.00;98626.53;5049630;28;20208;-88
2022/05/29 02:57:59;;;;;;;15.40;9.70;;;;;;;17.48;100.00;98649.16;5049295;28;20716;-87
2022/05/29 03:00:34;;;;;;;15.00;9.43;;;;;;;17.27;100.00;98689.25;5049523;28;20642;-86
2022/05/29 03:03:14;;;;;;;16.70;10.03;;;;;;;17.28;100.00;98706.38;5049085;28;20681;-87
2022/05/29 03:05:51;;;;;;;14.37;10.03;;;;;;;17.33;100.00;98714.44;5049723;28;20207;-89
2022/05/29 03:08:36;;;;;;;14.83;10.30;;;;;;;17.40;100.00;98718.00;5049427;28;20226;-86
2022/05/29 03:11:11;;;;;;;15.07;9.63;;;;;;;17.44;100.00;98697.78;5048872;28;20724;-83
2022/05/29 03:13:49;;;;;;;15.97;9.50;;;;;;;17.45;100.00;98690.84;5049021;28;20709;-89
2022/05/29 03:16:27;;;;;;;14.73;9.40;;;;;;;17.47;100.00;98676.78;5049088;28;20771;-90
2022/05/29 03:18:59;;;;;;;15.63;9.50;;;;;;;17.55;100.00;98681.13;5048134;28;20224;-87
2022/05/29 03:21:35;;;;;;;14.20;9.50;;;;;;;17.50;100.00;98686.78;5048773;28;20215;-90
2022/05/29 03:24:15;;;;;;;15.93;9.83;;;;;;;17.39;100.00;98689.72;5049080;28;20238;-91
2022/05/29 03:26:46;;;;;;;14.50;9.57;;;;;;;17.40;100.00;98676.66;5049304;28;20215;-91
2022/05/29 03:29:18;;;;;;;15.07;9.33;;;;;;;17.53;100.00;98650.28;5049034;28;20314;-87
2022/05/29 03:31:47;;;;;;;15.87;10.17;;;;;;;17.58;100.00;98626.53;5049117;28;20220;-87
2022/05/29 03:34:15;;;;;;;13.00;9.10;;;;;;;17.53;100.00;98634.75;5049175;28;20263;-87
2022/05/29 03:36:46;;;;;;;13.40;8.93;;;;;;;17.54;100.00;98615.72;5048737;28;20243;-87
2022/05/29 03:39:13;;;;;;;13.87;9.33;;;;;;;17.53;100.00;98608.13;5048804;28;20237;-88
2022/05/29 03:41:43;;;;;;;14.47;9.73;;;;;;;17.41;100.00;98631.72;5049386;28;20207;-91
2022/05/29 03:44:11;;;;;;;15.07;9.40;;;;;;;17.37;100.00;98620.13;5048563;28;20263;-87
2022/05/29 03:46:39;;;;;;;14.63;9.80;;;;;;;17.41;100.00;98580.03;5048824;28;20215;-88
2022/05/29 03:49:07;;;;;;;17.53;10.17;;;;;;;17.29;100.00;98602.06;5049886;28;20277;-93
2022/05/29 03:51:35;;;;;;;15.40;10.17;;;;;;;17.22;100.00;98624.38;5050628;28;20237;-87
2022/05/29 03:54:03;;;;;;;18.10;10.30;;;;;;;17.17;100.00;98624.03;5048363;28;20235;-88
2022/05/29 03:56:30;;;;;;;16.80;10.80;;;;;;;17.16;100.00;98679.25;5048833;28;20232;-91
2022/05/29 03:58:57;;;;;;;15.80;10.53;;;;;;;17.20;100.00;98714.13;5049133;28;20238;-92
2022/05/29 04:01:25;;;;;;;15.70;10.60;;;;;;;17.17;100.00;98717.84;5048611;28;20207;-91
2022/05/29 04:03:53;;;;;;;15.23;10.60;;;;;;;17.23;100.00;98697.50;5048486;28;20716;-91
2022/05/29 04:06:21;;;;;;;13.57;9.70;;;;;;;17.19;100.00;98704.75;5048886;28;20218;-91
2022/05/29 04:14:29;;;;;;;13.60;8.40;;;;;;;17.33;100.00;98714.44;4966634;28;20244;-86
2022/05/29 04:16:57;;;;;;;13.37;8.50;;;;;;;17.42;100.00;98716.06;5028143;28;20533;-86
2022/05/29 04:19:23;;;;;;;13.73;8.70;;;;;;;17.56;100.00;98706.00;5048250;28;20318;-93
2022/05/29 04:21:52;;;;;;;12.57;8.23;;;;;;;17.55;100.00;98691.47;5048563;28;20229;-86
2022/05/29 04:24:20;;;;;;;12.00;8.33;;;;;;;17.55;100.00;98689.69;5048451;28;20597;-92
2022/05/29 04:26:47;;;;;;;14.33;9.00;;;;;;;17.69;100.00;98679.66;5048201;28;20203;-86
2022/05/29 04:29:15;;;;;;;11.17;8.13;;;;;;;17.77;100.00;98667.50;5048181;28;20241;-87
2022/05/29 04:32:59;;;;;;;12.33;8.57;;;;;;;17.86;100.00;98650.22;5048003;28;20505;-87
2022/05/29 04:34:30;;;;;;;11.50;8.37;;;;;;;17.85;100.00;98664.91;5047701;28;20231;-86
2022/05/29 04:36:58;;;;;;;11.67;8.03;;;;;;;17.83;100.00;98643.59;5047804;28;20211;-87
2022/05/29 04:39:26;;;;;;;10.63;7.60;;;;;;;17.82;100.00;98626.44;5047697;28;20233;-86
2022/05/29 04:41:53;;;;;;;10.30;7.07;;;;;;;17.77;100.00;98610.63;5047802;28;20669;-87
2022/05/29 04:44:20;;;;;;;13.23;7.80;;;;;;;17.72;100.00;98612.09;5047499;28;20235;-87
2022/05/29 04:46:47;;;;;;;10.23;7.03;;;;;;;17.65;100.00;98623.09;5047787;28;20215;-88
2022/05/29 04:49:14;;;;;;;11.50;7.90;;;;;;;17.63;100.00;98622.47;5047747;28;20227;-87
2022/05/29 04:51:40;;;;;;;12.10;8.27;;;;;;;17.63;100.00;98645.72;5047757;28;20211;-87
2022/05/29 04:54:09;;;;;;;13.03;9.20;;;;;;;17.76;100.00;98649.56;5047256;28;20249;-87
2022/05/29 04:56:36;;;;;;;16.30;10.17;;;;;;;17.83;100.00;98660.88;5047775;28;20203;-87
2022/05/29 04:59:03;;;;;;;15.77;10.47;;;;;;;17.94;100.00;98664.88;5047329;28;20790;-87
2022/05/29 05:01:30;;;;;;;15.67;10.33;;;;;;;17.92;100.00;98659.06;5047585;28;20219;-88
2022/05/29 05:03:56;;;;;;;19.03;11.17;;;;;;;18.01;100.00;98660.66;5047339;28;20426;-87
2022/05/29 05:06:23;;;;;;;14.53;10.23;;;;;;;18.03;100.00;98687.13;5047500;28;20513;-87
2022/05/29 05:08:50;;;;;;;17.30;11.03;;;;;;;17.98;100.00;98703.19;5047665;28;20238;-86
2022/05/29 05:11:18;;;;;;;16.37;10.87;;;;;;;18.03;100.00;98692.31;5047344;28;20214;-87
2022/05/29 05:13:45;;;;;;;15.80;10.37;;;;;;;18.15;100.00;98691.00;5047336;28;20629;-90
2022/05/29 05:16:12;;;;;;;16.63;10.07;;;;;;;18.20;100.00;98691.25;5047496;28;20207;-89
2022/05/29 05:18:39;;;;;;;15.57;10.10;;;;;;;18.26;100.00;98697.53;5047529;28;20240;-89
2022/05/29 05:21:07;;;;;;;15.93;10.13;;;;;;;18.28;100.00;98695.59;5047095;28;20572;-89
2022/05/29 05:23:35;;;;;;;16.10;9.87;;;;;;;18.29;100.00;98692.84;5047979;28;20283;-88
2022/05/29 05:26:08;;;;;;;15.10;10.27;;;;;;;18.38;100.00;98690.19;5047129;28;20210;-89
2022/05/29 05:28:36;;;;;;;15.77;10.40;;;;;;;18.34;100.00;98694.91;5047723;28;20236;-88
2022/05/29 05:31:03;;;;;;;16.07;9.80;;;;;;;18.30;100.00;98699.63;5047173;28;20243;-88
2022/05/29 05:33:30;;;;;;;15.50;10.13;;;;;;;18.30;100.00;98704.00;5047287;28;20242;-87
2022/05/29 05:35:57;;;;;;;18.03;10.47;;;;;;;18.43;100.00;98706.03;5047386;28;20235;-87
2022/05/29 05:38:24;;;;;;;14.07;9.50;;;;;;;18.45;100.00;98702.31;5047533;28;20235;-86
2022/05/29 05:40:51;;;;;;;14.50;9.73;;;;;;;18.47;100.00;98696.94;5047942;28;20753;-87
2022/05/29 05:43:19;;;;;;;13.57;9.17;;;;;;;18.48;100.00;98693.41;5051044;28;20236;-87
2022/05/29 05:45:47;;;;;;;13.77;10.00;;;;;;;18.49;100.00;98687.22;5029896;28;20220;-86
2022/05/29 05:48:14;;;;;;;15.00;9.83;;;;;;;18.53;100.00;98684.13;5030870;28;20220;-88
2022/05/29 05:50:41;;;;;;;16.97;11.33;;;;;;;18.50;100.00;98687.06;5031006;28;20220;-88
2022/05/29 05:53:08;;;;;;;14.20;9.73;;;;;;;18.43;100.00;98680.94;5030895;28;20251;-88
2022/05/29 05:55:36;;;;;;;14.13;9.60;;;;;;;18.37;100.00;98678.25;5030622;28;20228;-88
2022/05/29 05:58:03;;;;;;;12.83;8.53;;;;;;;18.36;100.00;98682.63;5030662;28;20212;-85
2022/05/29 06:00:30;;;;;;;12.30;7.90;;;;;;;18.07;100.00;98675.50;5030729;28;20282;-85
2022/05/29 06:02:59;;;;;;;9.37;6.13;;;;;;;17.99;100.00;98670.34;5030399;28;20208;-85
2022/05/29 06:05:26;;;;;;;7.43;4.93;;;;;;;17.66;99.22;98678.19;5030510;28;20207;-86
2022/05/29 06:07:53;;;;;;;6.27;5.13;;;;;;;17.42;99.78;98668.72;5030600;28;20222;-85
2022/05/29 06:10:20;;;;;;;9.33;5.90;;;;;;;17.22;100.00;98683.78;5030412;28;20218;-81
2022/05/29 06:12:47;;;;;;;10.43;6.13;;;;;;;17.08;100.00;98671.53;5030325;28;20210;-86
2022/05/29 06:15:14;;;;;;;8.97;5.90;;;;;;;17.16;100.00;98658.56;5029867;28;20243;-84
2022/05/29 06:17:41;;;;;;;10.60;6.70;;;;;;;17.24;100.00;98653.41;5030340;28;20265;-86
2022/05/29 06:20:11;;;;;;;11.67;6.80;;;;;;;17.21;100.00;98676.97;5030533;28;20240;-86
2022/05/29 06:22:39;;;;;;;9.17;7.00;;;;;;;17.25;100.00;98690.38;5030479;28;20216;-90
2022/05/29 06:25:08;;;;;;;11.63;6.70;;;;;;;17.19;100.00;98684.09;5030432;28;20234;-87
2022/05/29 06:27:37;;;;;;;12.60;8.00;;;;;;;17.15;100.00;98651.81;5030607;28;20218;-88
2022/05/29 06:30:05;;;;;;;12.83;8.40;;;;;;;17.43;100.00;98639.34;5030094;28;20285;-84
2022/05/29 06:32:32;;;;;;;13.67;9.50;;;;;;;17.46;100.00;98656.28;5030117;28;20239;-87
2022/05/29 06:34:59;;;;;;;14.30;8.70;;;;;;;17.41;100.00;98657.56;5029875;28;20720;-84
2022/05/29 06:37:29;;;;;;;10.23;8.03;;;;;;;17.41;100.00;98672.28;5030257;28;20208;-88
2022/05/29 06:39:56;;;;;;;12.20;7.80;;;;;;;17.41;100.00;98670.50;5029869;28;20239;-85
2022/05/29 06:42:23;;;;;;;10.57;7.40;;;;;;;17.34;100.00;98681.66;5029801;28;20283;-89
2022/05/29 06:44:50;;;;;;;10.27;8.00;;;;;;;17.36;100.00;98659.03;5029909;28;20235;-84
2022/05/29 06:47:18;;;;;;;15.77;8.23;;;;;;;17.38;100.00;98665.66;5030117;28;20241;-89
2022/05/29 06:49:48;;;;;;;14.97;8.47;;;;;;;17.32;100.00;98668.91;5031076;28;20228;-88
2022/05/29 06:52:15;;;;;;;10.97;7.27;;;;;;;17.35;100.00;98672.94;5030855;28;20301;-92
2022/05/29 06:54:43;;;;;;;14.03;8.13;;;;;;;17.43;100.00;98691.81;5030438;28;20236;-85
2022/05/29 06:57:12;;;;;;;10.97;7.97;;;;;;;17.47;100.00;98697.47;5029969;28;20215;-89
2022/05/29 07:07:51;;;;;;;14.40;8.93;;;;;;;17.46;100.00;98674.38;5030293;28;20609;-85
2022/05/29 07:10:19;;;;;;;14.23;9.43;;;;;;;17.36;100.00;98653.88;5029331;28;20295;-85
2022/05/29 07:12:46;;;;;;;14.73;8.87;;;;;;;17.39;100.00;98644.03;5028935;28;20710;-87
2022/05/29 07:15:15;;;;;;;15.00;9.33;;;;;;;17.56;100.00;98623.28;5028865;28;20246;-85
2022/05/29 07:17:42;;;;;;;14.63;10.80;;;;;;;17.65;100.00;98592.06;5029443;28;20216;-92
2022/05/29 07:20:10;;;;;;;13.13;9.50;;;;;;;17.72;100.00;98602.56;5030043;28;20314;-87
2022/05/29 07:22:38;;;;;;;13.40;9.60;;;;;;;17.72;100.00;98620.66;5028818;28;20209;-93
2022/05/29 07:25:06;;;;;;;15.40;9.47;;;;;;;17.90;100.00;98648.88;5034637;28;20231;-90
2022/05/29 07:27:38;;;;;;;12.93;9.43;;;;;;;18.00;100.00;98646.88;5031716;28;20631;-82
2022/05/29 07:30:06;;;;;;;15.23;9.90;;;;;;;18.26;100.00;98641.41;5030049;28;20240;-80
2022/05/29 07:32:34;;;;;;;14.87;10.53;;;;;;;18.49;100.00;98643.22;5030963;28;20223;-80
2022/05/29 07:35:01;;;;;;;17.17;12.37;;;;;;;18.58;100.00;98644.78;5035064;28;20244;-78
2022/05/29 07:37:29;;;;;;;18.97;13.53;;;;;;;18.78;100.00;98624.41;5051042;28;20212;-81
2022/05/29 07:39:56;;;;;;;25.00;16.60;;;;;;;19.08;100.00;98622.72;5041934;28;20263;-80
2022/05/29 07:45:11;;;;;;;16.40;12.53;;;;;;;19.52;100.00;98632.31;5016533;28;20236;-85
2022/05/29 07:47:41;;;;;;;16.57;11.57;;;;;;;19.53;100.00;98644.28;5048032;28;20202;-84
2022/05/29 07:50:10;;;;;;;15.53;11.27;;;;;;;19.57;100.00;98645.50;5046931;28;20237;-85
2022/05/29 07:52:37;;;;;;;14.37;11.07;;;;;;;19.56;100.00;98649.09;5048363;28;20232;-84
2022/05/29 07:55:05;;;;;;;14.07;10.40;;;;;;;19.53;100.00;98649.47;5046280;28;20269;-92
2022/05/29 07:57:32;;;;;;;14.20;10.30;;;;;;;19.56;100.00;98654.28;5036526;28;20209;-85
2022/05/29 07:59:59;;;;;;;15.23;10.20;;;;;;;19.47;100.00;98647.59;5038589;28;20226;-87
2022/05/29 08:02:28;;;;;;;12.43;10.33;;;;;;;19.39;100.00;98650.25;5037174;28;20684;-86
2022/05/29 08:04:59;;;;;;;13.93;10.83;;;;;;;19.35;100.00;98656.78;5028062;28;20318;-82
2022/05/29 08:07:26;;;;;;;14.33;9.80;;;;;;;19.27;100.00;98660.25;5029135;28;20438;-87
2022/05/29 08:09:53;;;;;;;16.47;10.20;;;;;;;19.02;100.00;98661.47;5027945;28;20248;-86
2022/05/29 08:12:20;;;;;;;17.10;12.43;;;;;;;18.99;100.00;98672.97;5028436;28;20242;-87
2022/05/29 08:14:47;;;;;;;14.10;10.67;;;;;;;19.04;100.00;98667.28;5029373;28;20234;-88
2022/05/29 08:17:14;;;;;;;15.40;11.67;;;;;;;19.00;100.00;98672.00;5029657;28;20211;-89
2022/05/29 08:19:42;;;;;;;14.40;9.67;;;;;;;18.98;100.00;98672.16;5029864;28;20641;-86
2022/05/29 08:22:09;;;;;;;14.20;11.50;;;;;;;18.95;100.00;98682.09;5029941;28;20221;-90
2022/05/29 08:33:05;;;;;;;17.00;12.30;;;;;;;18.86;100.00;98693.50;5029322;28;20303;-84
2022/05/29 08:35:34;;;;;;;16.40;12.83;;;;;;;18.78;100.00;98687.38;5028996;28;20240;-86
2022/05/29 08:38:02;;;;;;;17.87;12.30;;;;;;;18.74;100.00;98680.94;5028909;28;20615;-87
2022/05/29 08:40:31;;;;;;;18.20;12.77;;;;;;;18.77;100.00;98678.00;5041577;28;20570;-83
2022/05/29 08:42:58;;;;;;;15.47;11.00;;;;;;;18.78;100.00;98684.78;5048169;28;20220;-85
2022/05/29 08:45:27;;;;;;;14.50;11.73;;;;;;;18.89;100.00;98698.31;5030148;28;20649;-84
2022/05/29 08:47:54;;;;;;;13.80;9.63;;;;;;;18.84;100.00;98698.03;5028761;28;20222;-87
2022/05/29 08:50:24;;;;;;;14.37;9.57;;;;;;;18.89;100.00;98695.75;5028721;28;20217;-85
2022/05/29 08:53:02;;;;;;;17.87;12.87;;;;;;;18.93;100.00;98684.03;5028973;28;20754;-90
2022/05/29 08:55:32;;;;;;;15.40;10.70;;;;;;;18.95;100.00;98680.28;5028758;28;20720;-87
2022/05/29 08:58:13;;;;;;;13.43;9.83;;;;;;;19.07;100.00;98691.03;5028984;28;20214;-85
2022/05/29 09:00:51;;;;;;;12.63;9.40;;;;;;;19.10;100.00;98680.31;5028930;28;20214;-87
2022/05/29 09:03:48;;;;;;;12.33;8.50;;;;;;;19.04;100.00;98700.97;5028304;28;20234;-85
2022/05/29 09:06:18;;;;;;;13.93;9.30;;;;;;;19.08;100.00;98697.03;4983409;28;20304;-83
2022/05/29 09:08:52;;;;;;;10.03;8.93;;;;;;;19.13;100.00;98682.56;5027557;28;20240;-86
2022/05/29 09:11:25;;;;;;;11.60;8.03;;;;;;;19.05;100.00;98677.44;5028827;28;20220;-84
2022/05/29 09:13:55;;;;;;;10.17;8.03;;;;;;;19.02;100.00;98669.22;5028643;28;20257;-86
2022/05/29 09:16:24;;;;;;;11.37;8.30;;;;;;;19.01;100.00;98676.19;5030112;28;20242;-82
2022/05/29 09:19:09;;;;;;;10.47;8.30;;;;;;;19.05;100.00;98677.44;5032516;28;20830;-82
2022/05/29 09:21:48;;;;;;;9.17;7.20;;;;;;;18.99;100.00;98657.44;5032592;28;20209;-84
2022/05/29 09:24:26;;;;;;;11.30;7.63;;;;;;;19.01;100.00;98650.28;5032355;28;20231;-84
2022/05/29 09:26:53;;;;;;;13.47;8.40;;;;;;;18.99;100.00;98678.97;5032225;28;20601;-84
2022/05/29 09:29:20;;;;;;;11.30;7.80;;;;;;;19.15;100.00;98688.38;5014707;28;20239;-84
2022/05/29 09:31:47;;;;;;;12.87;8.00;;;;;;;19.42;100.00;98683.59;5032270;28;20238;-86
2022/05/29 09:34:14;;;;;;;9.50;7.43;;;;;;;19.86;99.99;98680.22;5032273;28;20628;-84
2022/05/29 09:36:52;;;;;;;11.83;7.67;;;;;;;20.27;99.05;98677.13;5032026;28;20874;-84
2022/05/29 09:39:27;;;;;;;14.57;11.97;;;;;;;20.44;97.34;98667.31;5032260;28;20357;-82
2022/05/29 09:42:04;;;;;;;8.90;7.77;;;;;;;20.34;95.40;98670.22;5031833;28;20219;-87
2022/05/29 09:44:31;;;;;;;8.57;6.80;;;;;;;20.15;94.20;98669.00;5034031;28;20689;-88
2022/05/29 09:49:40;;;;;;;8.87;6.73;;;;;;;20.00;95.14;98676.81;5029397;28;20214;-85
2022/05/29 09:50:05;;;;;;;12.67;7.80;;;;;;;19.98;95.23;98667.59;5038456;28;20669;-87
2022/05/29 09:52:35;;;;;;;17.13;9.50;;;;;;;20.06;96.79;98657.94;5039617;28;20219;-84
2022/05/29 09:55:07;;;;;;;9.03;7.23;;;;;;;20.19;95.43;98659.88;5031875;28;20523;-87
2022/05/29 09:57:39;;;;;;;20.20;12.00;;;;;;;20.27;95.61;98651.16;5032259;28;20210;-85
2022/05/29 10:00:11;;;;;;;31.17;15.93;;;;;;;20.27;95.42;98656.34;5031888;28;20228;-83
2022/05/29 10:02:41;;;;;;;14.60;9.13;;;;;;;20.31;94.66;98657.59;5031845;28;20201;-87
2022/05/29 10:05:10;;;;;;;10.17;6.50;;;;;;;20.36;94.40;98663.03;5031745;28;20224;-84
2022/05/29 10:07:41;;;;;;;8.23;6.50;;;;;;;20.34;93.52;98652.03;5031953;28;20228;-86
2022/05/29 10:10:13;;;;;;;14.80;10.07;;;;;;;20.33;93.38;98655.63;5031743;28;20232;-87
2022/05/29 10:12:43;;;;;;;34.00;18.13;;;;;;;20.38;93.68;98653.28;5031770;28;20212;-86
2022/05/29 10:15:19;;;;;;;23.07;13.20;;;;;;;20.38;92.35;98642.88;5034140;28;20236;-88
2022/05/29 10:17:46;;;;;;;32.43;16.80;;;;;;;20.42;93.21;98638.13;5036860;28;20284;-82
2022/05/29 10:20:27;;;;;;;13.17;7.53;;;;;;;20.46;92.54;98636.78;5043030;28;20241;-81
2022/05/29 10:22:55;;;;;;;9.43;5.63;;;;;;;20.58;92.74;98627.53;5042663;28;20204;-85
2022/05/29 10:25:26;;;;;;;9.77;7.10;;;;;;;20.62;92.66;98622.75;5042173;28;20221;-84
2022/05/29 10:27:55;;;;;;;9.27;6.53;;;;;;;20.65;92.11;98612.00;5039474;28;20704;-88
2022/05/29 10:30:32;;;;;;;11.43;6.57;;;;;;;20.81;92.66;98606.53;5040624;28;20203;-88
2022/05/29 10:33:06;;;;;;;8.70;6.80;;;;;;;20.95;90.24;98613.44;5034004;28;20278;-85
2022/05/29 10:35:37;;;;;;;10.20;6.30;;;;;;;21.01;90.16;98607.47;5041684;28;20234;-85
2022/05/29 10:38:27;;;;;;;10.23;7.40;;;;;;;21.18;89.79;98602.81;5053255;28;20224;-86
2022/05/29 10:40:58;;;;;;;9.33;7.40;;;;;;;21.27;89.02;98600.84;5059924;28;20232;-83
2022/05/29 10:43:41;;;;;;;10.77;7.50;;;;;;;21.39;88.82;98601.94;5050074;28;20239;-87
2022/05/29 10:46:15;;;;;;;28.10;17.27;;;;;;;21.77;90.55;98596.31;5039384;28;20740;-88
2022/05/29 10:49:00;;;;;;;11.07;8.43;;;;;;;22.51;88.03;98602.50;5043393;28;20226;-83
2022/05/29 10:51:39;;;;;;;9.07;7.80;;;;;;;22.75;84.37;98596.69;5038727;28;20225;-86
2022/05/29 10:54:17;;;;;;;22.03;13.47;;;;;;;23.00;85.04;98596.09;5032503;28;20735;-85
2022/05/29 10:57:14;;;;;;;14.80;10.17;;;;;;;22.90;80.71;98595.69;5030818;28;20243;-81
2022/05/29 11:00:11;;;;;;;22.03;12.60;;;;;;;22.86;82.50;98600.47;5030856;28;20250;-82
2022/05/29 11:03:21;;;;;;;12.13;9.27;;;;;;;22.96;84.91;98594.91;4985819;28;20584;-87
2022/05/29 11:06:35;;;;;;;12.60;9.52;;;;;;;23.26;81.88;98595.25;5023007;28;20261;-84
2022/05/29 11:09:33;;;;;;;11.20;9.57;;;;;;;23.23;80.04;98586.00;5024062;28;20721;-83
2022/05/29 11:12:09;;;;;;;13.52;10.65;;;;;;;22.99;81.17;98586.69;5024490;28;20212;-79
2022/05/29 11:15:02;;;;;;;11.37;9.90;;;;;;;22.75;82.28;98572.44;5030432;28;20212;-83
2022/05/29 11:17:44;;;;;;;11.10;9.73;;;;;;;22.49;81.59;98575.84;5030658;28;20215;-88
2022/05/29 11:20:29;;;;;;;12.63;9.67;;;;;;;22.48;82.53;98569.03;5030537;28;20238;-87
2022/05/29 11:23:12;;;;;;;11.90;9.93;;;;;;;22.42;82.00;98562.81;5032923;28;20208;-86
2022/05/29 11:25:50;;;;;;;12.63;10.17;;;;;;;22.38;82.88;98557.19;5030306;28;20276;-87
2022/05/29 11:28:49;;;;;;;13.53;9.97;;;;;;;22.45;83.76;98553.78;5030035;28;20235;-83
2022/05/29 11:31:32;;;;;;;13.00;9.13;;;;;;;22.40;82.50;98553.59;5024794;28;20220;-83
2022/05/29 11:34:15;;;;;;;11.93;9.70;;;;;;;22.53;82.82;98541.38;5030091;28;20827;-83
2022/05/29 11:36:58;;;;;;;14.10;10.73;;;;;;;22.93;83.61;98527.50;5030176;28;20234;-81
2022/05/29 11:39:32;;;;;;;11.43;9.73;;;;;;;23.51;82.09;98530.13;5029415;28;20615;-86
2022/05/29 11:42:07;;;;;;;13.53;9.47;;;;;;;23.61;78.93;98525.25;5029800;28;20224;-85
2022/05/29 11:44:42;;;;;;;13.38;9.40;;;;;;;23.50;79.51;98507.66;5029715;28;20231;-84
2022/05/29 11:52:58;;;;;;;11.80;8.27;;;;;;;23.41;78.50;98511.50;5029647;28;20207;-87
2022/05/29 11:55:30;;;;;;;11.75;7.78;;;;;;;23.26;79.53;98498.72;5030003;28;20287;-84
2022/05/29 11:58:02;;;;;;;8.93;7.25;;;;;;;23.37;80.13;98497.28;5030056;28;20208;-85
2022/05/29 12:00:38;;;;;;;11.48;7.70;;;;;;;23.50;79.52;98498.03;5029909;28;20211;-87
2022/05/29 12:03:20;;;;;;;7.88;6.60;;;;;;;23.51;79.23;98498.81;5030467;28;20215;-84
2022/05/29 12:05:52;;;;;;;10.35;7.32;;;;;;;23.53;79.28;98502.00;5039033;28;20215;-82
2022/05/29 12:08:25;;;;;;;8.98;6.72;;;;;;;24.00;80.13;98502.59;5037269;28;20294;-83
2022/05/29 12:11:01;;;;;;;8.70;6.60;;;;;;;24.33;77.82;98493.69;5038360;28;20215;-81